DLH18M EDDF-EDDM
Flight info
| Callsign | DLH18M |
|---|---|
| Flight time | 0h 32m |
| Altitude | 23000 |
| Route | CINDY8S/18 CINDY Z74 HAREM T104 ROKIL ROKIL1B |
| Aircraft | A35K/H-SDE2E3GHIJ3J4J5LM1ORWXY/LB1D1 |
Departure
| Time | 2026-05-04 20:04 |
|---|---|
| Airport | Frankfurt Main Airport (EDDF) |
Arrival
| Time | 2026-05-04 20:37 |
|---|---|
| Airport | Munich Airport (EDDM) |
| Time | Latitude | Longitude | Altitude | Speed | Heading |
|---|---|---|---|---|---|
| 2026-05-04 19:32 | 50.04771 | 8.56499 | 368 ft | 0 kts | 339° |
| 2026-05-04 19:49 | 50.04763 | 8.56504 | 362 ft | 3 kts | 339° |
| 2026-05-04 19:49 | 50.04746 | 8.56513 | 363 ft | 3 kts | 332° |
| 2026-05-04 19:50 | 50.04729 | 8.56534 | 368 ft | 3 kts | 293° |
| 2026-05-04 19:50 | 50.04722 | 8.56562 | 363 ft | 3 kts | 281° |
| 2026-05-04 19:50 | 50.04722 | 8.56595 | 362 ft | 3 kts | 242° |
| 2026-05-04 19:50 | 50.04725 | 8.56604 | 362 ft | 0 kts | 229° |
| 2026-05-04 19:55 | 50.04719 | 8.56592 | 362 ft | 3 kts | 234° |
| 2026-05-04 19:55 | 50.04699 | 8.56544 | 367 ft | 1 kts | 239° |
| 2026-05-04 19:55 | 50.04693 | 8.56527 | 370 ft | 5 kts | 242° |
| 2026-05-04 19:56 | 50.04673 | 8.56463 | 366 ft | 8 kts | 249° |
| 2026-05-04 19:56 | 50.04649 | 8.56360 | 368 ft | 12 kts | 249° |
| 2026-05-04 19:56 | 50.04615 | 8.56218 | 366 ft | 16 kts | 249° |
| 2026-05-04 19:56 | 50.04577 | 8.56061 | 368 ft | 17 kts | 250° |
| 2026-05-04 19:57 | 50.04494 | 8.55943 | 370 ft | 17 kts | 200° |
| 2026-05-04 19:57 | 50.04409 | 8.55913 | 369 ft | 9 kts | 182° |
| 2026-05-04 19:57 | 50.04334 | 8.55933 | 365 ft | 13 kts | 163° |
| 2026-05-04 19:57 | 50.04240 | 8.55917 | 368 ft | 14 kts | 226° |
| 2026-05-04 19:58 | 50.04200 | 8.55771 | 363 ft | 17 kts | 250° |
| 2026-05-04 19:58 | 50.04154 | 8.55582 | 365 ft | 21 kts | 249° |
| 2026-05-04 19:58 | 50.04100 | 8.55357 | 362 ft | 23 kts | 249° |
| 2026-05-04 19:58 | 50.04043 | 8.55120 | 363 ft | 22 kts | 249° |
| 2026-05-04 19:59 | 50.03986 | 8.54882 | 362 ft | 26 kts | 249° |
| 2026-05-04 19:59 | 50.03919 | 8.54597 | 359 ft | 30 kts | 250° |
| 2026-05-04 19:59 | 50.03828 | 8.54299 | 360 ft | 25 kts | 236° |
| 2026-05-04 19:59 | 50.03790 | 8.54177 | 358 ft | 13 kts | 249° |
| 2026-05-04 20:00 | 50.03754 | 8.54025 | 360 ft | 17 kts | 250° |
| 2026-05-04 20:00 | 50.03708 | 8.53833 | 353 ft | 21 kts | 248° |
| 2026-05-04 20:00 | 50.03651 | 8.53606 | 353 ft | 24 kts | 248° |
| 2026-05-04 20:00 | 50.03593 | 8.53373 | 354 ft | 24 kts | 250° |
| 2026-05-04 20:01 | 50.03531 | 8.53113 | 352 ft | 27 kts | 249° |
| 2026-05-04 20:01 | 50.03509 | 8.53021 | 355 ft | 3 kts | 249° |
| 2026-05-04 20:01 | 50.03495 | 8.52965 | 353 ft | 8 kts | 249° |
| 2026-05-04 20:01 | 50.03467 | 8.52860 | 354 ft | 13 kts | 246° |
| 2026-05-04 20:02 | 50.03441 | 8.52762 | 349 ft | 3 kts | 249° |
| 2026-05-04 20:02 | 50.03436 | 8.52741 | 353 ft | 0 kts | 248° |
| 2026-05-04 20:02 | 50.03434 | 8.52731 | 352 ft | 3 kts | 248° |
| 2026-05-04 20:02 | 50.03419 | 8.52672 | 351 ft | 8 kts | 248° |
| 2026-05-04 20:03 | 50.03377 | 8.52598 | 353 ft | 9 kts | 195° |
| 2026-05-04 20:03 | 50.03331 | 8.52595 | 343 ft | 11 kts | 180° |
| 2026-05-04 20:03 | 50.03237 | 8.52595 | 344 ft | 15 kts | 180° |
| 2026-05-04 20:03 | 50.03019 | 8.52597 | 351 ft | 67 kts | 180° |
| 2026-05-04 20:04 | 50.02266 | 8.52605 | 347 ft | 145 kts | 180° |
| 2026-05-04 20:04 | 50.01089 | 8.52623 | 756 ft | 176 kts | 182° |
| 2026-05-04 20:04 | 49.99930 | 8.52621 | 1833 ft | 165 kts | 181° |
| 2026-05-04 20:04 | 49.98808 | 8.52568 | 2819 ft | 160 kts | 184° |
| 2026-05-04 20:05 | 49.97637 | 8.52608 | 3467 ft | 175 kts | 173° |
| 2026-05-04 20:05 | 49.96444 | 8.53362 | 3943 ft | 205 kts | 143° |
| 2026-05-04 20:05 | 49.95504 | 8.55293 | 4228 ft | 242 kts | 119° |
| 2026-05-04 20:05 | 49.94705 | 8.57685 | 4901 ft | 257 kts | 118° |
| 2026-05-04 20:06 | 49.93877 | 8.60174 | 5894 ft | 262 kts | 120° |
| 2026-05-04 20:06 | 49.93007 | 8.62693 | 6917 ft | 267 kts | 121° |
| 2026-05-04 20:06 | 49.92107 | 8.65244 | 7909 ft | 273 kts | 122° |
| 2026-05-04 20:06 | 49.91179 | 8.67847 | 8993 ft | 278 kts | 122° |
| 2026-05-04 20:07 | 49.90228 | 8.70500 | 9995 ft | 285 kts | 123° |
| 2026-05-04 20:07 | 49.89234 | 8.73255 | 10610 ft | 305 kts | 123° |
| 2026-05-04 20:07 | 49.88156 | 8.76228 | 10912 ft | 337 kts | 122° |
| 2026-05-04 20:07 | 49.86929 | 8.79611 | 10953 ft | 369 kts | 122° |
| 2026-05-04 20:08 | 49.85657 | 8.83135 | 11217 ft | 374 kts | 122° |
| 2026-05-04 20:08 | 49.84413 | 8.86592 | 11779 ft | 363 kts | 122° |
| 2026-05-04 20:08 | 49.83197 | 8.89959 | 12415 ft | 363 kts | 122° |
| 2026-05-04 20:08 | 49.81951 | 8.93391 | 13066 ft | 367 kts | 122° |
| 2026-05-04 20:09 | 49.80693 | 8.96850 | 13732 ft | 371 kts | 122° |
| 2026-05-04 20:09 | 49.79414 | 9.00361 | 14323 ft | 375 kts | 122° |
| 2026-05-04 20:09 | 49.78127 | 9.03891 | 14910 ft | 378 kts | 122° |
| 2026-05-04 20:09 | 49.76827 | 9.07462 | 15527 ft | 382 kts | 122° |
| 2026-05-04 20:10 | 49.75824 | 9.11301 | 16160 ft | 388 kts | 108° |
| 2026-05-04 20:10 | 49.75137 | 9.15304 | 16789 ft | 391 kts | 108° |
| 2026-05-04 20:10 | 49.74105 | 9.19242 | 17435 ft | 390 kts | 122° |
| 2026-05-04 20:10 | 49.72596 | 9.22666 | 18098 ft | 392 kts | 130° |
| 2026-05-04 20:11 | 49.70846 | 9.25985 | 18715 ft | 394 kts | 133° |
| 2026-05-04 20:11 | 49.69041 | 9.29138 | 19300 ft | 398 kts | 135° |
| 2026-05-04 20:11 | 49.67166 | 9.32318 | 19904 ft | 401 kts | 135° |
| 2026-05-04 20:11 | 49.65278 | 9.35516 | 20523 ft | 405 kts | 135° |
| 2026-05-04 20:12 | 49.63380 | 9.38764 | 21152 ft | 409 kts | 135° |
| 2026-05-04 20:12 | 49.61477 | 9.42058 | 21795 ft | 413 kts | 135° |
| 2026-05-04 20:12 | 49.59573 | 9.45393 | 22450 ft | 417 kts | 135° |
| 2026-05-04 20:12 | 49.57636 | 9.48791 | 22854 ft | 424 kts | 134° |
| 2026-05-04 20:13 | 49.55664 | 9.52250 | 22979 ft | 439 kts | 134° |
| 2026-05-04 20:13 | 49.53601 | 9.55862 | 22969 ft | 457 kts | 134° |
| 2026-05-04 20:13 | 49.51516 | 9.59517 | 22980 ft | 458 kts | 134° |
| 2026-05-04 20:13 | 49.49411 | 9.63207 | 22985 ft | 457 kts | 134° |
| 2026-05-04 20:14 | 49.47316 | 9.66877 | 22983 ft | 457 kts | 134° |
| 2026-05-04 20:14 | 49.45218 | 9.70543 | 22987 ft | 457 kts | 134° |
| 2026-05-04 20:14 | 49.43114 | 9.74210 | 22988 ft | 457 kts | 134° |
| 2026-05-04 20:14 | 49.41248 | 9.77457 | 22991 ft | 457 kts | 134° |
| 2026-05-04 20:15 | 49.39139 | 9.81120 | 22993 ft | 457 kts | 134° |
| 2026-05-04 20:15 | 49.37028 | 9.84775 | 22974 ft | 457 kts | 134° |
| 2026-05-04 20:15 | 49.34918 | 9.88417 | 22992 ft | 456 kts | 134° |
| 2026-05-04 20:15 | 49.32838 | 9.92003 | 22993 ft | 456 kts | 134° |
| 2026-05-04 20:16 | 49.30729 | 9.95636 | 22993 ft | 456 kts | 134° |
| 2026-05-04 20:16 | 49.28618 | 9.99267 | 22992 ft | 456 kts | 134° |
| 2026-05-04 20:16 | 49.26509 | 10.02892 | 22989 ft | 455 kts | 134° |
| 2026-05-04 20:16 | 49.24398 | 10.06515 | 22988 ft | 455 kts | 134° |
| 2026-05-04 20:17 | 49.22484 | 10.09795 | 22986 ft | 455 kts | 134° |
| 2026-05-04 20:17 | 49.20393 | 10.13372 | 22982 ft | 455 kts | 134° |
| 2026-05-04 20:17 | 49.18276 | 10.16992 | 22987 ft | 456 kts | 134° |
| 2026-05-04 20:17 | 49.16154 | 10.20616 | 22982 ft | 461 kts | 134° |
| 2026-05-04 20:18 | 49.13997 | 10.24297 | 22971 ft | 464 kts | 134° |
| 2026-05-04 20:18 | 49.11816 | 10.27950 | 22981 ft | 465 kts | 135° |
| 2026-05-04 20:18 | 49.09595 | 10.31541 | 22984 ft | 465 kts | 136° |
| 2026-05-04 20:18 | 49.07353 | 10.35106 | 22983 ft | 465 kts | 136° |
| 2026-05-04 20:19 | 49.05109 | 10.38661 | 22976 ft | 465 kts | 136° |
| 2026-05-04 20:19 | 49.02868 | 10.42222 | 22980 ft | 466 kts | 136° |
| 2026-05-04 20:19 | 49.00808 | 10.46059 | 22983 ft | 469 kts | 127° |
| 2026-05-04 20:19 | 48.99058 | 10.50262 | 22980 ft | 471 kts | 123° |
| 2026-05-04 20:20 | 48.97420 | 10.54509 | 22981 ft | 471 kts | 122° |
| 2026-05-04 20:20 | 48.95775 | 10.58838 | 22985 ft | 472 kts | 122° |
| 2026-05-04 20:20 | 48.94140 | 10.63156 | 22990 ft | 471 kts | 122° |
| 2026-05-04 20:20 | 48.92504 | 10.67479 | 22991 ft | 471 kts | 122° |
| 2026-05-04 20:21 | 48.90869 | 10.71797 | 22974 ft | 471 kts | 122° |
| 2026-05-04 20:21 | 48.89235 | 10.76108 | 22962 ft | 471 kts | 122° |
| 2026-05-04 20:21 | 48.85967 | 10.84712 | 22973 ft | 471 kts | 122° |
| 2026-05-04 20:22 | 48.84327 | 10.89021 | 22942 ft | 468 kts | 122° |
| 2026-05-04 20:22 | 48.82730 | 10.93215 | 22707 ft | 452 kts | 122° |
| 2026-05-04 20:22 | 48.81180 | 10.97280 | 22287 ft | 439 kts | 122° |
| 2026-05-04 20:22 | 48.79649 | 11.01284 | 21308 ft | 440 kts | 122° |
| 2026-05-04 20:23 | 48.78091 | 11.05344 | 19981 ft | 450 kts | 122° |
| 2026-05-04 20:23 | 48.76518 | 11.09441 | 19078 ft | 449 kts | 123° |
| 2026-05-04 20:23 | 48.74946 | 11.13534 | 18257 ft | 447 kts | 123° |
| 2026-05-04 20:23 | 48.73390 | 11.17579 | 17410 ft | 442 kts | 123° |
| 2026-05-04 20:24 | 48.71869 | 11.21529 | 16617 ft | 436 kts | 123° |
| 2026-05-04 20:24 | 48.70346 | 11.25479 | 15831 ft | 430 kts | 123° |
| 2026-05-04 20:24 | 48.68852 | 11.29344 | 15081 ft | 424 kts | 123° |
| 2026-05-04 20:24 | 48.67367 | 11.33183 | 14355 ft | 418 kts | 123° |
| 2026-05-04 20:25 | 48.65906 | 11.36950 | 13589 ft | 413 kts | 123° |
| 2026-05-04 20:25 | 48.64459 | 11.40678 | 12665 ft | 409 kts | 123° |
| 2026-05-04 20:25 | 48.63023 | 11.44371 | 11811 ft | 405 kts | 123° |
| 2026-05-04 20:25 | 48.61609 | 11.48005 | 11231 ft | 397 kts | 123° |
| 2026-05-04 20:26 | 48.60218 | 11.51572 | 10675 ft | 392 kts | 123° |
| 2026-05-04 20:26 | 48.58896 | 11.55176 | 9695 ft | 394 kts | 117° |
| 2026-05-04 20:26 | 48.58130 | 11.59159 | 8819 ft | 393 kts | 104° |
| 2026-05-04 20:26 | 48.57564 | 11.63158 | 8053 ft | 387 kts | 104° |
| 2026-05-04 20:27 | 48.56999 | 11.67093 | 7266 ft | 380 kts | 104° |
| 2026-05-04 20:27 | 48.56433 | 11.70966 | 6482 ft | 375 kts | 104° |
| 2026-05-04 20:27 | 48.55874 | 11.74719 | 5696 ft | 368 kts | 104° |
| 2026-05-04 20:27 | 48.55301 | 11.78456 | 4898 ft | 363 kts | 104° |
| 2026-05-04 20:28 | 48.54705 | 11.82130 | 4223 ft | 356 kts | 106° |
| 2026-05-04 20:28 | 48.53813 | 11.85599 | 4011 ft | 354 kts | 116° |
| 2026-05-04 20:28 | 48.52662 | 11.88860 | 3978 ft | 348 kts | 119° |
| 2026-05-04 20:28 | 48.51535 | 11.91925 | 4007 ft | 315 kts | 119° |
| 2026-05-04 20:29 | 48.50542 | 11.94621 | 4014 ft | 274 kts | 119° |
| 2026-05-04 20:29 | 48.49918 | 11.97128 | 4010 ft | 240 kts | 100° |
| 2026-05-04 20:29 | 48.49753 | 11.99474 | 3988 ft | 211 kts | 94° |
| 2026-05-04 20:29 | 48.49680 | 12.01555 | 3990 ft | 186 kts | 93° |
| 2026-05-04 20:30 | 48.49624 | 12.03411 | 4024 ft | 171 kts | 93° |
| 2026-05-04 20:30 | 48.49573 | 12.05181 | 4107 ft | 170 kts | 93° |
| 2026-05-04 20:30 | 48.49478 | 12.06955 | 4188 ft | 170 kts | 102° |
| 2026-05-04 20:30 | 48.49030 | 12.08584 | 4265 ft | 169 kts | 124° |
| 2026-05-04 20:31 | 48.48291 | 12.09964 | 4338 ft | 169 kts | 135° |
| 2026-05-04 20:31 | 48.47385 | 12.11089 | 4456 ft | 169 kts | 147° |
| 2026-05-04 20:31 | 48.46352 | 12.11873 | 4550 ft | 168 kts | 160° |
| 2026-05-04 20:31 | 48.45217 | 12.12249 | 4611 ft | 168 kts | 175° |
| 2026-05-04 20:32 | 48.44053 | 12.12086 | 4635 ft | 171 kts | 194° |
| 2026-05-04 20:32 | 48.42932 | 12.11331 | 4650 ft | 184 kts | 210° |
| 2026-05-04 20:32 | 48.41829 | 12.10186 | 4503 ft | 196 kts | 217° |
| 2026-05-04 20:32 | 48.40824 | 12.08808 | 4285 ft | 195 kts | 225° |
| 2026-05-04 20:33 | 48.39955 | 12.07249 | 4060 ft | 192 kts | 232° |
| 2026-05-04 20:33 | 48.39251 | 12.05575 | 3892 ft | 185 kts | 240° |
| 2026-05-04 20:33 | 48.38735 | 12.03878 | 3733 ft | 177 kts | 248° |
| 2026-05-04 20:33 | 48.38369 | 12.02136 | 3562 ft | 171 kts | 254° |
| 2026-05-04 20:34 | 48.38101 | 12.00329 | 3370 ft | 192 kts | 259° |
| 2026-05-04 20:34 | 48.37865 | 11.98144 | 3112 ft | 212 kts | 262° |
| 2026-05-04 20:34 | 48.37708 | 11.96048 | 2866 ft | 191 kts | 265° |
| 2026-05-04 20:34 | 48.37626 | 11.94141 | 2626 ft | 175 kts | 267° |
| 2026-05-04 20:35 | 48.37548 | 11.92362 | 2436 ft | 170 kts | 266° |
| 2026-05-04 20:35 | 48.37386 | 11.90552 | 2376 ft | 180 kts | 261° |
| 2026-05-04 20:35 | 48.37153 | 11.88676 | 2316 ft | 188 kts | 261° |
| 2026-05-04 20:35 | 48.37012 | 11.86751 | 2046 ft | 181 kts | 265° |
| 2026-05-04 20:36 | 48.36905 | 11.84953 | 1850 ft | 165 kts | 265° |
| 2026-05-04 20:36 | 48.36764 | 11.83300 | 1672 ft | 152 kts | 265° |
| 2026-05-04 20:36 | 48.36653 | 11.81791 | 1552 ft | 136 kts | 265° |
| 2026-05-04 20:36 | 48.36557 | 11.80460 | 1463 ft | 121 kts | 264° |
| 2026-05-04 20:37 | 48.36477 | 11.79354 | 1471 ft | 91 kts | 263° |
| 2026-05-04 20:37 | 48.36418 | 11.78593 | 1463 ft | 45 kts | 263° |
| 2026-05-04 20:37 | 48.36397 | 11.78329 | 1468 ft | 24 kts | 263° |
| 2026-05-04 20:37 | 48.36344 | 11.78079 | 1462 ft | 26 kts | 245° |
| 2026-05-04 20:38 | 48.36229 | 11.77859 | 1459 ft | 28 kts | 231° |
| 2026-05-04 20:38 | 48.36096 | 11.77679 | 1463 ft | 24 kts | 195° |
| 2026-05-04 20:38 | 48.35927 | 11.77683 | 1462 ft | 26 kts | 173° |
| 2026-05-04 20:38 | 48.35739 | 11.77709 | 1460 ft | 28 kts | 176° |
| 2026-05-04 20:39 | 48.35389 | 11.77756 | 1465 ft | 91 kts | 169° |
| 2026-05-04 20:39 | 48.34938 | 11.77853 | 1468 ft | 19 kts | 172° |
| 2026-05-04 20:39 | 48.34877 | 11.77885 | 1461 ft | 8 kts | 135° |
| 2026-05-04 20:39 | 48.34863 | 11.77986 | 1472 ft | 22 kts | 90° |
| 2026-05-04 20:40 | 48.34898 | 11.78227 | 1461 ft | 3 kts | 41° |
| 2026-05-04 20:40 | 48.34933 | 11.78253 | 1461 ft | 8 kts | 22° |
| 2026-05-04 20:40 | 48.34978 | 11.78264 | 1464 ft | 6 kts | 26° |
| 2026-05-04 20:40 | 48.34993 | 11.78307 | 1464 ft | 6 kts | 70° |
| 2026-05-04 20:41 | 48.35000 | 11.78360 | 1465 ft | 0 kts | 82° |